sensor_id;sensor_type;location;lat;lon;timestamp;pressure;altitude;pressure_sealevel;temperature;humidity
10518;BME280;5307;42.548;22.968;2022-11-03T00:00:05;94406.03;;;10.42;69.88
10518;BME280;5307;42.548;22.968;2022-11-03T00:02:32;94390.38;;;10.30;69.45
10518;BME280;5307;42.548;22.968;2022-11-03T00:04:58;94403.06;;;10.36;69.79
10518;BME280;5307;42.548;22.968;2022-11-03T00:07:46;94404.47;;;10.41;70.24
10518;BME280;5307;42.548;22.968;2022-11-03T00:10:13;94409.44;;;10.46;70.03
10518;BME280;5307;42.548;22.968;2022-11-03T00:12:39;94393.72;;;10.21;70.43
10518;BME280;5307;42.548;22.968;2022-11-03T00:15:08;94403.97;;;10.46;69.92
10518;BME280;5307;42.548;22.968;2022-11-03T00:17:35;94405.28;;;10.54;69.69
10518;BME280;5307;42.548;22.968;2022-11-03T00:20:02;94408.94;;;10.64;69.39
10518;BME280;5307;42.548;22.968;2022-11-03T00:22:29;94418.31;;;10.63;69.66
10518;BME280;5307;42.548;22.968;2022-11-03T00:24:58;94404.63;;;10.50;69.90
10518;BME280;5307;42.548;22.968;2022-11-03T00:27:26;94412.28;;;10.55;69.54
10518;BME280;5307;42.548;22.968;2022-11-03T00:29:55;94397.88;;;10.67;68.46
10518;BME280;5307;42.548;22.968;2022-11-03T00:32:24;94400.78;;;10.89;68.84
10518;BME280;5307;42.548;22.968;2022-11-03T00:34:54;94402.59;;;10.67;69.72
10518;BME280;5307;42.548;22.968;2022-11-03T00:37:28;94409.50;;;10.72;69.61
10518;BME280;5307;42.548;22.968;2022-11-03T00:39:54;94406.53;;;10.66;69.01
10518;BME280;5307;42.548;22.968;2022-11-03T00:42:21;94407.88;;;10.74;69.53
10518;BME280;5307;42.548;22.968;2022-11-03T00:47:47;94400.19;;;10.69;69.23
10518;BME280;5307;42.548;22.968;2022-11-03T00:50:32;94403.06;;;10.91;68.51
10518;BME280;5307;42.548;22.968;2022-11-03T00:52:59;94400.31;;;10.78;70.29
10518;BME280;5307;42.548;22.968;2022-11-03T00:55:26;94397.03;;;10.70;70.77
10518;BME280;5307;42.548;22.968;2022-11-03T00:57:52;94408.31;;;10.85;69.29
10518;BME280;5307;42.548;22.968;2022-11-03T01:00:19;94401.22;;;10.88;70.04
10518;BME280;5307;42.548;22.968;2022-11-03T01:02:47;94396.81;;;10.78;69.88
10518;BME280;5307;42.548;22.968;2022-11-03T01:05:14;94394.75;;;10.94;70.24
10518;BME280;5307;42.548;22.968;2022-11-03T01:08:00;94391.94;;;10.85;71.34
10518;BME280;5307;42.548;22.968;2022-11-03T01:10:29;94395.75;;;10.88;71.48
10518;BME280;5307;42.548;22.968;2022-11-03T01:12:56;94394.00;;;10.94;70.69
10518;BME280;5307;42.548;22.968;2022-11-03T01:15:23;94387.31;;;10.95;70.43
10518;BME280;5307;42.548;22.968;2022-11-03T01:17:51;94404.06;;;11.10;70.00
10518;BME280;5307;42.548;22.968;2022-11-03T01:20:18;94394.34;;;11.09;70.50
10518;BME280;5307;42.548;22.968;2022-11-03T01:22:44;94396.84;;;11.03;70.35
10518;BME280;5307;42.548;22.968;2022-11-03T01:25:11;94404.94;;;11.19;70.39
10518;BME280;5307;42.548;22.968;2022-11-03T01:27:38;94404.19;;;11.19;70.81
10518;BME280;5307;42.548;22.968;2022-11-03T01:30:06;94400.69;;;11.18;70.92
10518;BME280;5307;42.548;22.968;2022-11-03T01:32:33;94386.56;;;10.94;70.45
10518;BME280;5307;42.548;22.968;2022-11-03T01:35:01;94404.19;;;11.19;70.92
10518;BME280;5307;42.548;22.968;2022-11-03T01:37:28;94398.59;;;11.22;71.02
10518;BME280;5307;42.548;22.968;2022-11-03T01:39:55;94398.06;;;11.02;71.65
10518;BME280;5307;42.548;22.968;2022-11-03T01:42:21;94397.06;;;11.09;72.43
10518;BME280;5307;42.548;22.968;2022-11-03T01:44:48;94399.91;;;11.05;72.55
10518;BME280;5307;42.548;22.968;2022-11-03T01:47:23;94402.63;;;10.92;71.14
10518;BME280;5307;42.548;22.968;2022-11-03T01:49:54;94403.19;;;11.00;70.83
10518;BME280;5307;42.548;22.968;2022-11-03T01:52:27;94395.66;;;11.04;70.13
10518;BME280;5307;42.548;22.968;2022-11-03T01:55:01;94401.75;;;10.95;72.41
10518;BME280;5307;42.548;22.968;2022-11-03T02:04:11;94395.06;;;10.71;72.71
10518;BME280;5307;42.548;22.968;2022-11-03T02:06:39;94393.97;;;10.56;72.61
10518;BME280;5307;42.548;22.968;2022-11-03T02:09:08;94399.38;;;10.43;73.64
10518;BME280;5307;42.548;22.968;2022-11-03T02:11:36;94399.56;;;10.36;73.21
10518;BME280;5307;42.548;22.968;2022-11-03T02:14:21;94404.63;;;10.50;73.73
10518;BME280;5307;42.548;22.968;2022-11-03T02:16:51;94402.84;;;10.31;74.05
10518;BME280;5307;42.548;22.968;2022-11-03T02:19:26;94400.47;;;10.17;73.99
10518;BME280;5307;42.548;22.968;2022-11-03T02:22:04;94397.13;;;10.09;73.86
10518;BME280;5307;42.548;22.968;2022-11-03T02:24:43;94403.97;;;10.17;75.10
10518;BME280;5307;42.548;22.968;2022-11-03T02:27:16;94394.50;;;10.05;74.16
10518;BME280;5307;42.548;22.968;2022-11-03T02:29:43;94402.03;;;10.01;75.09
10518;BME280;5307;42.548;22.968;2022-11-03T02:32:15;94397.84;;;9.97;74.82
10518;BME280;5307;42.548;22.968;2022-11-03T02:34:48;94390.97;;;9.92;74.94
10518;BME280;5307;42.548;22.968;2022-11-03T02:37:20;94405.97;;;10.00;74.48
10518;BME280;5307;42.548;22.968;2022-11-03T02:39:51;94403.19;;;10.17;75.24
10518;BME280;5307;42.548;22.968;2022-11-03T02:42:22;94413.38;;;9.83;75.18
10518;BME280;5307;42.548;22.968;2022-11-03T02:44:51;94411.03;;;9.86;75.83
10518;BME280;5307;42.548;22.968;2022-11-03T02:47:20;94401.94;;;10.05;74.12
10518;BME280;5307;42.548;22.968;2022-11-03T02:49:50;94405.47;;;10.18;74.56
10518;BME280;5307;42.548;22.968;2022-11-03T02:52:37;94410.69;;;10.12;75.03
10518;BME280;5307;42.548;22.968;2022-11-03T02:55:10;94404.91;;;10.10;76.15
10518;BME280;5307;42.548;22.968;2022-11-03T02:57:42;94404.69;;;9.89;75.89
10518;BME280;5307;42.548;22.968;2022-11-03T03:00:12;94405.59;;;10.15;74.07
10518;BME280;5307;42.548;22.968;2022-11-03T03:02:52;94399.97;;;10.05;74.30
10518;BME280;5307;42.548;22.968;2022-11-03T03:05:24;94393.41;;;10.03;74.78
10518;BME280;5307;42.548;22.968;2022-11-03T03:07:57;94398.34;;;10.08;74.71
10518;BME280;5307;42.548;22.968;2022-11-03T03:10:30;94401.53;;;9.90;74.74
10518;BME280;5307;42.548;22.968;2022-11-03T03:13:01;94385.75;;;9.98;75.08
10518;BME280;5307;42.548;22.968;2022-11-03T03:15:35;94386.38;;;9.89;75.45
10518;BME280;5307;42.548;22.968;2022-11-03T03:18:11;94391.97;;;9.98;73.84
10518;BME280;5307;42.548;22.968;2022-11-03T03:20:46;94400.78;;;9.90;75.84
10518;BME280;5307;42.548;22.968;2022-11-03T03:23:18;94393.56;;;9.67;75.60
10518;BME280;5307;42.548;22.968;2022-11-03T03:25:49;94409.81;;;9.87;74.99
10518;BME280;5307;42.548;22.968;2022-11-03T03:28:22;94404.13;;;10.10;74.05
10518;BME280;5307;42.548;22.968;2022-11-03T03:30:51;94396.44;;;9.76;75.64
10518;BME280;5307;42.548;22.968;2022-11-03T03:33:19;94402.06;;;9.69;75.29
10518;BME280;5307;42.548;22.968;2022-11-03T03:35:48;94399.22;;;10.05;72.99
10518;BME280;5307;42.548;22.968;2022-11-03T03:38:18;94402.41;;;9.71;74.01
10518;BME280;5307;42.548;22.968;2022-11-03T03:40:50;94400.88;;;9.53;75.69
10518;BME280;5307;42.548;22.968;2022-11-03T03:43:19;94409.59;;;9.48;75.66
10518;BME280;5307;42.548;22.968;2022-11-03T03:45:49;94406.19;;;9.44;75.78
10518;BME280;5307;42.548;22.968;2022-11-03T03:48:17;94415.91;;;9.45;76.08
10518;BME280;5307;42.548;22.968;2022-11-03T03:50:46;94420.69;;;9.58;75.75
10518;BME280;5307;42.548;22.968;2022-11-03T03:53:14;94410.78;;;9.64;75.54
10518;BME280;5307;42.548;22.968;2022-11-03T03:55:46;94407.72;;;9.45;75.68
10518;BME280;5307;42.548;22.968;2022-11-03T03:58:14;94405.34;;;9.31;77.50
10518;BME280;5307;42.548;22.968;2022-11-03T04:00:42;94410.59;;;9.22;75.82
10518;BME280;5307;42.548;22.968;2022-11-03T04:03:14;94413.41;;;9.18;75.94
10518;BME280;5307;42.548;22.968;2022-11-03T04:05:42;94411.50;;;8.99;77.59
10518;BME280;5307;42.548;22.968;2022-11-03T04:08:09;94407.19;;;9.18;76.46
10518;BME280;5307;42.548;22.968;2022-11-03T04:10:36;94411.63;;;9.28;75.90
10518;BME280;5307;42.548;22.968;2022-11-03T04:13:04;94412.63;;;9.02;76.88
10518;BME280;5307;42.548;22.968;2022-11-03T04:15:50;94419.72;;;9.15;76.06
10518;BME280;5307;42.548;22.968;2022-11-03T04:18:34;94409.97;;;8.98;76.91
10518;BME280;5307;42.548;22.968;2022-11-03T04:21:18;94409.94;;;8.82;77.56
10518;BME280;5307;42.548;22.968;2022-11-03T04:24:13;94406.28;;;8.88;77.58
10518;BME280;5307;42.548;22.968;2022-11-03T04:26:40;94415.19;;;8.73;78.59
10518;BME280;5307;42.548;22.968;2022-11-03T04:29:08;94418.41;;;8.68;78.08
10518;BME280;5307;42.548;22.968;2022-11-03T04:31:37;94413.06;;;8.80;76.30
10518;BME280;5307;42.548;22.968;2022-11-03T04:34:09;94409.88;;;8.66;77.46
10518;BME280;5307;42.548;22.968;2022-11-03T04:36:37;94416.34;;;8.72;78.02
10518;BME280;5307;42.548;22.968;2022-11-03T04:39:12;94422.22;;;8.90;77.40
10518;BME280;5307;42.548;22.968;2022-11-03T04:41:41;94417.72;;;8.63;77.30
10518;BME280;5307;42.548;22.968;2022-11-03T04:44:12;94416.41;;;8.52;78.58
10518;BME280;5307;42.548;22.968;2022-11-03T04:46:42;94424.00;;;8.60;78.71
10518;BME280;5307;42.548;22.968;2022-11-03T04:49:13;94424.25;;;8.66;78.50
10518;BME280;5307;42.548;22.968;2022-11-03T04:51:42;94420.41;;;8.83;77.34
10518;BME280;5307;42.548;22.968;2022-11-03T04:54:12;94411.59;;;8.59;77.61
10518;BME280;5307;42.548;22.968;2022-11-03T04:56:41;94421.75;;;8.55;78.21
10518;BME280;5307;42.548;22.968;2022-11-03T04:59:10;94419.13;;;8.52;79.12
10518;BME280;5307;42.548;22.968;2022-11-03T05:01:37;94400.00;;;8.36;78.97
10518;BME280;5307;42.548;22.968;2022-11-03T05:04:11;94419.06;;;8.36;79.50
10518;BME280;5307;42.548;22.968;2022-11-03T05:06:39;94426.97;;;8.26;79.31
10518;BME280;5307;42.548;22.968;2022-11-03T05:09:13;94422.25;;;8.30;79.80
10518;BME280;5307;42.548;22.968;2022-11-03T05:11:54;94419.28;;;8.45;78.98
10518;BME280;5307;42.548;22.968;2022-11-03T05:14:23;94419.31;;;8.61;78.43
10518;BME280;5307;42.548;22.968;2022-11-03T05:16:52;94420.50;;;8.60;78.12
10518;BME280;5307;42.548;22.968;2022-11-03T05:19:23;94424.50;;;8.36;79.33
10518;BME280;5307;42.548;22.968;2022-11-03T05:21:51;94422.38;;;8.23;80.98
10518;BME280;5307;42.548;22.968;2022-11-03T05:24:20;94400.09;;;8.28;79.55
10518;BME280;5307;42.548;22.968;2022-11-03T05:26:50;94425.19;;;8.40;80.15
10518;BME280;5307;42.548;22.968;2022-11-03T05:29:19;94425.59;;;8.58;78.64
10518;BME280;5307;42.548;22.968;2022-11-03T05:31:48;94427.56;;;8.38;79.58
10518;BME280;5307;42.548;22.968;2022-11-03T05:34:31;94425.81;;;8.47;79.20
10518;BME280;5307;42.548;22.968;2022-11-03T05:36:59;94428.59;;;8.44;80.07
10518;BME280;5307;42.548;22.968;2022-11-03T05:39:29;94429.28;;;8.68;78.93
10518;BME280;5307;42.548;22.968;2022-11-03T05:41:57;94436.63;;;8.71;78.35
10518;BME280;5307;42.548;22.968;2022-11-03T05:44:28;94445.16;;;8.73;79.11
10518;BME280;5307;42.548;22.968;2022-11-03T05:47:01;94447.03;;;8.76;79.00
10518;BME280;5307;42.548;22.968;2022-11-03T05:49:30;94439.19;;;8.78;79.19
10518;BME280;5307;42.548;22.968;2022-11-03T05:51:59;94441.75;;;8.85;78.85
10518;BME280;5307;42.548;22.968;2022-11-03T05:54:28;94445.66;;;9.04;78.51
10518;BME280;5307;42.548;22.968;2022-11-03T05:56:57;94459.31;;;9.20;78.44
10518;BME280;5307;42.548;22.968;2022-11-03T05:59:27;94461.97;;;9.40;77.71
10518;BME280;5307;42.548;22.968;2022-11-03T06:01:55;94476.69;;;9.42;77.77
10518;BME280;5307;42.548;22.968;2022-11-03T06:04:27;94462.81;;;9.20;77.93
10518;BME280;5307;42.548;22.968;2022-11-03T06:07:00;94469.91;;;9.34;78.36
10518;BME280;5307;42.548;22.968;2022-11-03T06:09:31;94474.34;;;9.44;78.68
10518;BME280;5307;42.548;22.968;2022-11-03T06:12:00;94469.91;;;9.67;77.77
10518;BME280;5307;42.548;22.968;2022-11-03T06:14:29;94468.22;;;9.73;76.54
10518;BME280;5307;42.548;22.968;2022-11-03T06:16:59;94473.41;;;9.83;78.22
10518;BME280;5307;42.548;22.968;2022-11-03T06:19:31;94475.34;;;9.83;76.09
10518;BME280;5307;42.548;22.968;2022-11-03T06:22:07;94476.81;;;10.04;75.11
10518;BME280;5307;42.548;22.968;2022-11-03T06:24:37;94479.44;;;10.24;73.83
10518;BME280;5307;42.548;22.968;2022-11-03T06:27:04;94476.06;;;10.49;71.94
10518;BME280;5307;42.548;22.968;2022-11-03T06:29:38;94475.44;;;10.57;72.01
10518;BME280;5307;42.548;22.968;2022-11-03T06:32:09;94481.38;;;10.68;71.33
10518;BME280;5307;42.548;22.968;2022-11-03T06:34:40;94469.28;;;10.82;69.41
10518;BME280;5307;42.548;22.968;2022-11-03T06:37:16;94480.94;;;11.12;70.23
10518;BME280;5307;42.548;22.968;2022-11-03T06:39:44;94478.56;;;11.26;68.09
10518;BME280;5307;42.548;22.968;2022-11-03T06:42:12;94481.06;;;11.34;67.44
10518;BME280;5307;42.548;22.968;2022-11-03T06:44:41;94480.31;;;11.46;67.10
10518;BME280;5307;42.548;22.968;2022-11-03T06:47:18;94481.41;;;11.48;66.91
10518;BME280;5307;42.548;22.968;2022-11-03T06:49:46;94482.94;;;11.62;66.60
10518;BME280;5307;42.548;22.968;2022-11-03T06:52:22;94484.59;;;11.98;65.80
10518;BME280;5307;42.548;22.968;2022-11-03T06:54:54;94478.72;;;12.56;63.82
10518;BME280;5307;42.548;22.968;2022-11-03T06:57:21;94479.28;;;12.94;63.20
10518;BME280;5307;42.548;22.968;2022-11-03T06:59:49;94484.16;;;13.12;61.64
10518;BME280;5307;42.548;22.968;2022-11-03T07:02:34;94466.34;;;13.17;60.61
10518;BME280;5307;42.548;22.968;2022-11-03T07:05:19;94470.56;;;13.30;58.94
10518;BME280;5307;42.548;22.968;2022-11-03T07:07:49;94470.56;;;13.08;59.60
10518;BME280;5307;42.548;22.968;2022-11-03T07:10:17;94472.09;;;13.31;59.38
10518;BME280;5307;42.548;22.968;2022-11-03T07:12:44;94460.84;;;13.79;58.31
10518;BME280;5307;42.548;22.968;2022-11-03T07:15:23;94466.88;;;14.14;57.57
10518;BME280;5307;42.548;22.968;2022-11-03T07:17:52;94463.72;;;14.24;57.03
10518;BME280;5307;42.548;22.968;2022-11-03T07:20:19;94464.13;;;14.14;56.58
10518;BME280;5307;42.548;22.968;2022-11-03T07:22:49;94464.34;;;14.38;56.02
10518;BME280;5307;42.548;22.968;2022-11-03T07:25:18;94467.94;;;15.26;53.53
10518;BME280;5307;42.548;22.968;2022-11-03T07:27:48;94460.47;;;15.18;53.53
10518;BME280;5307;42.548;22.968;2022-11-03T07:30:19;94461.47;;;14.78;54.61
10518;BME280;5307;42.548;22.968;2022-11-03T07:32:48;94458.63;;;15.24;54.55
10518;BME280;5307;42.548;22.968;2022-11-03T07:35:27;94458.94;;;15.17;54.28
10518;BME280;5307;42.548;22.968;2022-11-03T07:38:00;94455.81;;;15.51;53.35
10518;BME280;5307;42.548;22.968;2022-11-03T07:40:31;94451.09;;;16.32;51.53
10518;BME280;5307;42.548;22.968;2022-11-03T07:43:00;94460.84;;;15.95;51.87
10518;BME280;5307;42.548;22.968;2022-11-03T07:45:38;94442.50;;;15.92;53.16
10518;BME280;5307;42.548;22.968;2022-11-03T07:48:17;94445.88;;;16.97;50.79
10518;BME280;5307;42.548;22.968;2022-11-03T07:50:45;94440.75;;;17.19;50.16
10518;BME280;5307;42.548;22.968;2022-11-03T07:53:18;94451.00;;;16.27;52.59
10518;BME280;5307;42.548;22.968;2022-11-03T07:55:46;94445.94;;;16.01;52.96
10518;BME280;5307;42.548;22.968;2022-11-03T07:58:19;94443.44;;;16.13;52.94
10518;BME280;5307;42.548;22.968;2022-11-03T08:00:47;94440.28;;;16.91;50.79
10518;BME280;5307;42.548;22.968;2022-11-03T08:03:25;94437.22;;;16.89;50.79
10518;BME280;5307;42.548;22.968;2022-11-03T08:05:53;94437.09;;;16.69;52.38
10518;BME280;5307;42.548;22.968;2022-11-03T08:08:21;94431.66;;;16.36;52.62
10518;BME280;5307;42.548;22.968;2022-11-03T08:10:49;94427.72;;;17.05;50.79
10518;BME280;5307;42.548;22.968;2022-11-03T08:13:16;94425.72;;;16.91;51.27
10518;BME280;5307;42.548;22.968;2022-11-03T08:15:43;94425.91;;;16.25;52.78
10518;BME280;5307;42.548;22.968;2022-11-03T08:18:09;94428.84;;;15.97;53.43
10518;BME280;5307;42.548;22.968;2022-11-03T08:20:36;94423.84;;;15.87;54.19
10518;BME280;5307;42.548;22.968;2022-11-03T08:23:03;94419.06;;;16.59;54.31
10518;BME280;5307;42.548;22.968;2022-11-03T08:32:42;94413.91;;;16.76;51.71
10518;BME280;5307;42.548;22.968;2022-11-03T08:35:09;94413.97;;;17.70;49.88
10518;BME280;5307;42.548;22.968;2022-11-03T08:37:36;94412.03;;;17.91;48.30
10518;BME280;5307;42.548;22.968;2022-11-03T08:40:03;94403.88;;;18.43;48.43
10518;BME280;5307;42.548;22.968;2022-11-03T08:42:30;94406.69;;;17.87;49.27
10518;BME280;5307;42.548;22.968;2022-11-03T08:44:57;94404.16;;;18.04;49.42
10518;BME280;5307;42.548;22.968;2022-11-03T08:47:25;94406.63;;;17.67;49.73
10518;BME280;5307;42.548;22.968;2022-11-03T08:49:53;94405.09;;;18.01;48.74
10518;BME280;5307;42.548;22.968;2022-11-03T08:52:20;94406.50;;;17.11;49.76
10518;BME280;5307;42.548;22.968;2022-11-03T08:54:47;94403.97;;;17.43;50.11
10518;BME280;5307;42.548;22.968;2022-11-03T08:57:14;94396.91;;;18.06;48.85
10518;BME280;5307;42.548;22.968;2022-11-03T08:59:40;94391.22;;;18.77;47.93
10518;BME280;5307;42.548;22.968;2022-11-03T09:02:07;94402.69;;;19.16;47.02
10518;BME280;5307;42.548;22.968;2022-11-03T09:04:34;94400.66;;;18.90;46.04
10518;BME280;5307;42.548;22.968;2022-11-03T09:07:02;94396.66;;;19.17;45.60
10518;BME280;5307;42.548;22.968;2022-11-03T09:09:30;94395.13;;;18.90;46.38
10518;BME280;5307;42.548;22.968;2022-11-03T09:11:57;94392.41;;;19.85;44.02
10518;BME280;5307;42.548;22.968;2022-11-03T09:14:24;94386.66;;;18.99;45.09
10518;BME280;5307;42.548;22.968;2022-11-03T09:16:50;94381.25;;;19.74;45.15
10518;BME280;5307;42.548;22.968;2022-11-03T09:19:17;94385.09;;;20.36;44.48
10518;BME280;5307;42.548;22.968;2022-11-03T09:21:44;94386.72;;;20.11;43.23
10518;BME280;5307;42.548;22.968;2022-11-03T09:24:12;94377.22;;;20.94;40.95
10518;BME280;5307;42.548;22.968;2022-11-03T09:26:39;94376.09;;;20.52;41.46
10518;BME280;5307;42.548;22.968;2022-11-03T09:29:05;94374.88;;;20.10;43.33
10518;BME280;5307;42.548;22.968;2022-11-03T09:31:32;94367.81;;;20.04;43.66
10518;BME280;5307;42.548;22.968;2022-11-03T09:33:59;94362.25;;;20.69;42.93
10518;BME280;5307;42.548;22.968;2022-11-03T09:36:26;94357.88;;;20.40;42.01
10518;BME280;5307;42.548;22.968;2022-11-03T09:38:53;94352.41;;;20.62;42.87
10518;BME280;5307;42.548;22.968;2022-11-03T09:41:21;94346.38;;;20.58;41.92
10518;BME280;5307;42.548;22.968;2022-11-03T09:43:48;94336.06;;;21.76;40.15
10518;BME280;5307;42.548;22.968;2022-11-03T09:46:16;94335.50;;;20.66;41.40
10518;BME280;5307;42.548;22.968;2022-11-03T09:48:44;94336.28;;;20.55;41.21
10518;BME280;5307;42.548;22.968;2022-11-03T09:51:16;94336.59;;;21.13;40.35
10518;BME280;5307;42.548;22.968;2022-11-03T09:53:44;94328.81;;;21.28;40.37
10518;BME280;5307;42.548;22.968;2022-11-03T09:56:11;94331.28;;;21.66;39.77
10518;BME280;5307;42.548;22.968;2022-11-03T09:58:40;94323.22;;;21.17;41.02
10518;BME280;5307;42.548;22.968;2022-11-03T10:01:08;94316.69;;;21.31;41.27
10518;BME280;5307;42.548;22.968;2022-11-03T10:03:35;94309.34;;;21.34;40.68
10518;BME280;5307;42.548;22.968;2022-11-03T10:06:03;94311.09;;;21.03;40.04
10518;BME280;5307;42.548;22.968;2022-11-03T10:08:33;94307.22;;;21.90;39.56
10518;BME280;5307;42.548;22.968;2022-11-03T10:11:02;94293.56;;;22.50;38.27
10518;BME280;5307;42.548;22.968;2022-11-03T10:13:33;94297.91;;;21.66;38.69
10518;BME280;5307;42.548;22.968;2022-11-03T10:16:04;94293.19;;;21.32;38.40
10518;BME280;5307;42.548;22.968;2022-11-03T10:18:32;94292.91;;;21.47;38.60
10518;BME280;5307;42.548;22.968;2022-11-03T10:21:03;94281.81;;;22.22;37.86
10518;BME280;5307;42.548;22.968;2022-11-03T10:23:30;94282.97;;;21.85;38.94
10518;BME280;5307;42.548;22.968;2022-11-03T10:26:07;94274.06;;;21.98;38.53
10518;BME280;5307;42.548;22.968;2022-11-03T10:28:35;94270.16;;;22.23;37.81
10518;BME280;5307;42.548;22.968;2022-11-03T10:31:05;94265.38;;;21.38;37.45
10518;BME280;5307;42.548;22.968;2022-11-03T10:33:35;94265.72;;;21.98;37.51
10518;BME280;5307;42.548;22.968;2022-11-03T10:36:03;94258.44;;;21.84;36.78
10518;BME280;5307;42.548;22.968;2022-11-03T10:38:32;94263.69;;;21.99;36.12
10518;BME280;5307;42.548;22.968;2022-11-03T10:41:10;94233.84;;;22.51;35.84
10518;BME280;5307;42.548;22.968;2022-11-03T10:43:38;94248.38;;;22.33;36.22
10518;BME280;5307;42.548;22.968;2022-11-03T10:46:11;94241.47;;;22.45;35.46
10518;BME280;5307;42.548;22.968;2022-11-03T10:48:39;94240.19;;;21.94;34.67
10518;BME280;5307;42.548;22.968;2022-11-03T10:51:10;94234.69;;;22.41;35.69
10518;BME280;5307;42.548;22.968;2022-11-03T10:53:38;94234.66;;;21.88;37.15
10518;BME280;5307;42.548;22.968;2022-11-03T10:56:07;94236.88;;;22.12;36.77
10518;BME280;5307;42.548;22.968;2022-11-03T10:58:33;94231.47;;;21.62;36.00
10518;BME280;5307;42.548;22.968;2022-11-03T11:01:02;94223.34;;;21.75;36.25
10518;BME280;5307;42.548;22.968;2022-11-03T11:03:40;94223.78;;;21.90;35.53
10518;BME280;5307;42.548;22.968;2022-11-03T11:06:17;94211.47;;;21.75;36.85
10518;BME280;5307;42.548;22.968;2022-11-03T11:08:45;94209.88;;;21.96;35.15
10518;BME280;5307;42.548;22.968;2022-11-03T11:11:14;94208.47;;;21.61;36.31
10518;BME280;5307;42.548;22.968;2022-11-03T11:13:42;94198.91;;;21.57;35.45
10518;BME280;5307;42.548;22.968;2022-11-03T11:19:10;94200.44;;;21.47;36.67
10518;BME280;5307;42.548;22.968;2022-11-03T11:22:11;94201.25;;;21.30;36.02
10518;BME280;5307;42.548;22.968;2022-11-03T11:25:00;94197.84;;;21.71;37.79
10518;BME280;5307;42.548;22.968;2022-11-03T11:28:09;94192.28;;;21.71;37.43
10518;BME280;5307;42.548;22.968;2022-11-03T11:33:48;94185.75;;;21.52;37.27
10518;BME280;5307;42.548;22.968;2022-11-03T11:36:22;94168.44;;;21.12;36.37
10518;BME280;5307;42.548;22.968;2022-11-03T11:38:56;94176.66;;;21.57;36.04
10518;BME280;5307;42.548;22.968;2022-11-03T11:51:24;94164.03;;;21.56;35.07
10518;BME280;5307;42.548;22.968;2022-11-03T11:53:51;94159.22;;;21.56;35.45
10518;BME280;5307;42.548;22.968;2022-11-03T11:56:18;94156.88;;;21.66;34.72
10518;BME280;5307;42.548;22.968;2022-11-03T11:58:47;94139.38;;;21.30;33.43
10518;BME280;5307;42.548;22.968;2022-11-03T12:01:21;94150.81;;;21.68;34.42
10518;BME280;5307;42.548;22.968;2022-11-03T12:03:50;94142.69;;;21.75;34.26
10518;BME280;5307;42.548;22.968;2022-11-03T12:06:32;94150.34;;;21.63;33.96
10518;BME280;5307;42.548;22.968;2022-11-03T12:09:06;94144.81;;;21.58;34.39
10518;BME280;5307;42.548;22.968;2022-11-03T12:11:40;94140.28;;;21.55;33.17
10518;BME280;5307;42.548;22.968;2022-11-03T12:14:20;94129.66;;;21.59;33.84
10518;BME280;5307;42.548;22.968;2022-11-03T12:16:47;94128.13;;;21.58;32.90
10518;BME280;5307;42.548;22.968;2022-11-03T12:19:48;94118.63;;;21.37;32.77
10518;BME280;5307;42.548;22.968;2022-11-03T12:25:34;94117.63;;;21.40;32.14
10518;BME280;5307;42.548;22.968;2022-11-03T12:28:01;94115.31;;;21.38;31.87
10518;BME280;5307;42.548;22.968;2022-11-03T12:30:28;94118.13;;;21.32;32.46
10518;BME280;5307;42.548;22.968;2022-11-03T12:32:55;94117.94;;;21.02;31.75
10518;BME280;5307;42.548;22.968;2022-11-03T12:35:22;94111.13;;;21.03;32.16
10518;BME280;5307;42.548;22.968;2022-11-03T12:37:48;94099.53;;;20.94;31.56
10518;BME280;5307;42.548;22.968;2022-11-03T12:40:15;94098.03;;;20.93;31.85
10518;BME280;5307;42.548;22.968;2022-11-03T12:42:44;94101.56;;;20.99;32.22
10518;BME280;5307;42.548;22.968;2022-11-03T12:45:11;94098.03;;;20.93;31.91
10518;BME280;5307;42.548;22.968;2022-11-03T12:47:39;94096.78;;;20.83;31.63
10518;BME280;5307;42.548;22.968;2022-11-03T12:50:07;94089.47;;;20.80;32.04
10518;BME280;5307;42.548;22.968;2022-11-03T12:52:34;94086.97;;;20.65;32.72
10518;BME280;5307;42.548;22.968;2022-11-03T12:55:01;94083.44;;;20.75;32.25
10518;BME280;5307;42.548;22.968;2022-11-03T12:57:27;94086.72;;;20.74;32.26
10518;BME280;5307;42.548;22.968;2022-11-03T12:59:56;94081.91;;;20.69;32.31
10518;BME280;5307;42.548;22.968;2022-11-03T13:02:22;94079.44;;;20.60;33.35
10518;BME280;5307;42.548;22.968;2022-11-03T13:04:49;94080.44;;;20.51;33.11
10518;BME280;5307;42.548;22.968;2022-11-03T13:07:16;94074.63;;;20.55;33.63
10518;BME280;5307;42.548;22.968;2022-11-03T13:09:43;94067.34;;;20.57;34.37
10518;BME280;5307;42.548;22.968;2022-11-03T13:12:10;94064.31;;;20.55;34.71
10518;BME280;5307;42.548;22.968;2022-11-03T13:14:56;94063.78;;;20.51;35.48
10518;BME280;5307;42.548;22.968;2022-11-03T13:17:23;94066.56;;;20.57;34.09
10518;BME280;5307;42.548;22.968;2022-11-03T13:19:50;94064.56;;;20.52;35.02
10518;BME280;5307;42.548;22.968;2022-11-03T13:22:17;94062.03;;;20.59;35.18
10518;BME280;5307;42.548;22.968;2022-11-03T13:24:44;94060.28;;;20.56;35.22
10518;BME280;5307;42.548;22.968;2022-11-03T13:27:11;94066.31;;;20.38;34.32
10518;BME280;5307;42.548;22.968;2022-11-03T13:29:38;94062.53;;;20.41;35.24
10518;BME280;5307;42.548;22.968;2022-11-03T13:32:06;94051.94;;;20.34;36.24
10518;BME280;5307;42.548;22.968;2022-11-03T13:34:33;94059.00;;;20.57;33.61
10518;BME280;5307;42.548;22.968;2022-11-03T13:37:00;94052.94;;;20.53;33.73
10518;BME280;5307;42.548;22.968;2022-11-03T13:39:29;94060.28;;;20.45;34.07
10518;BME280;5307;42.548;22.968;2022-11-03T13:41:55;94061.31;;;20.42;34.22
10518;BME280;5307;42.548;22.968;2022-11-03T13:44:22;94059.25;;;20.26;34.64
10518;BME280;5307;42.548;22.968;2022-11-03T13:46:49;94056.22;;;20.24;34.86
10518;BME280;5307;42.548;22.968;2022-11-03T13:49:17;94058.75;;;20.10;36.72
10518;BME280;5307;42.548;22.968;2022-11-03T13:51:45;94058.03;;;19.99;36.87
10518;BME280;5307;42.548;22.968;2022-11-03T13:54:12;94061.28;;;19.86;38.21